Daffan, Texas
Current Conditions -  °F | °C
As of 2:15 PM on Thursday 23 Oct 2014 (Local Time) from KEDC Reporting Station
Clear Clear  
Wind Chill: 81°   Ceiling: Unl
Heat Index: 81°   Visibility: 10mi
Dew Point: 57°   Wind: 3mph
Humidity: 45%   Direction: 350°N
Pressure: 30.1"   Gusts: NA
Location:  30.352°N, 97.5205°W
Report Text: KEDC 231915Z AUTO 35003KT 10SM CLR 27/14 A3010 RMK AO2
Loading
Personal Weather Stations






























Interactive Weather Map
Tropical Storm Tracking
New forecast layout! Learn more

10-Day Weather Forecast

Advertisements
Track Severe Weather on mobile